createdAt,value
2022-08-03T00:00:26.209Z,70.34
2022-08-03T00:02:53.029Z,70.14
2022-08-03T00:05:19.824Z,70.85
2022-08-03T00:07:46.217Z,70.19
2022-08-03T00:10:15.030Z,70.59
2022-08-03T00:12:41.409Z,70.25
2022-08-03T00:15:11.142Z,70.97
2022-08-03T00:17:53.539Z,71.17
2022-08-03T00:20:21.856Z,71.40
2022-08-03T00:22:49.441Z,71.07
2022-08-03T00:25:15.992Z,71.30
2022-08-03T00:27:42.482Z,71.24
2022-08-03T00:30:09.616Z,71.54
2022-08-03T00:32:36.073Z,71.58
2022-08-03T00:35:07.941Z,71.85
2022-08-03T00:37:40.815Z,72.03
2022-08-03T00:40:10.517Z,72.09
2022-08-03T00:42:46.867Z,71.68
2022-08-03T00:45:13.339Z,71.61
2022-08-03T00:47:39.737Z,72.37
2022-08-03T00:50:06.602Z,72.22
2022-08-03T00:52:33.021Z,71.60
2022-08-03T00:55:00.962Z,72.08
2022-08-03T00:57:30.005Z,72.51
2022-08-03T00:59:56.463Z,71.99
2022-08-03T01:02:22.941Z,72.29
2022-08-03T01:04:49.588Z,72.22
2022-08-03T01:07:35.785Z,72.71
2022-08-03T01:10:32.807Z,72.92
2022-08-03T01:13:13.988Z,72.15
2022-08-03T01:16:15.364Z,73.22
2022-08-03T01:18:52.516Z,73.07
2022-08-03T01:21:26.915Z,72.87
2022-08-03T01:24:22.547Z,73.31
2022-08-03T01:27:10.739Z,73.15
2022-08-03T01:29:49.584Z,73.76
2022-08-03T01:32:59.977Z,74.18
2022-08-03T01:35:13.018Z,74.17
2022-08-03T01:37:45.847Z,74.45
2022-08-03T01:40:14.243Z,74.11
2022-08-03T01:42:42.679Z,74.67
2022-08-03T01:45:12.644Z,74.20
2022-08-03T01:47:40.483Z,74.63
2022-08-03T01:50:08.957Z,74.84
2022-08-03T01:52:40.381Z,75.18
2022-08-03T01:55:08.678Z,74.44
2022-08-03T01:58:06.199Z,74.85
2022-08-03T02:00:25.831Z,75.37
2022-08-03T02:02:54.684Z,75.25
2022-08-03T02:05:22.051Z,75.04
2022-08-03T02:07:49.904Z,75.38
2022-08-03T02:10:34.345Z,74.77
2022-08-03T02:13:05.081Z,75.03
2022-08-03T02:15:33.889Z,75.05
2022-08-03T02:18:03.147Z,75.82
2022-08-03T02:20:33.139Z,75.81
2022-08-03T02:23:00.129Z,75.74
2022-08-03T02:25:27.048Z,75.48
2022-08-03T02:27:58.013Z,75.48
2022-08-03T02:30:31.531Z,75.84
2022-08-03T02:32:59.248Z,76.20
2022-08-03T02:35:28.568Z,76.39
2022-08-03T02:38:01.061Z,76.26
2022-08-03T02:40:29.688Z,76.37
2022-08-03T02:42:59.521Z,76.40
2022-08-03T02:45:27.742Z,76.15
2022-08-03T02:47:58.094Z,76.22
2022-08-03T02:50:25.896Z,76.42
2022-08-03T02:52:53.934Z,75.93
2022-08-03T02:55:22.839Z,76.30
2022-08-03T02:57:50.321Z,76.35
2022-08-03T03:00:27.573Z,75.47
2022-08-03T03:02:57.898Z,76.26
2022-08-03T03:05:52.873Z,76.55
2022-08-03T03:08:18.017Z,76.34
2022-08-03T03:10:46.506Z,76.31
2022-08-03T03:13:15.501Z,76.44
2022-08-03T03:15:44.173Z,76.38
2022-08-03T03:18:11.279Z,76.61
2022-08-03T03:20:40.840Z,76.82
2022-08-03T03:23:09.101Z,77.10
2022-08-03T03:25:36.251Z,76.66
2022-08-03T03:28:03.709Z,76.62
2022-08-03T03:30:34.176Z,77.37
2022-08-03T03:33:00.939Z,77.59
2022-08-03T03:35:28.061Z,77.14
2022-08-03T03:37:54.777Z,77.32
2022-08-03T03:40:22.246Z,77.41
2022-08-03T03:42:50.052Z,77.68
2022-08-03T03:45:16.997Z,78.13
2022-08-03T03:47:43.686Z,77.80
2022-08-03T03:50:11.005Z,78.11
2022-08-03T03:52:37.571Z,77.67
2022-08-03T03:55:04.287Z,77.48
2022-08-03T03:57:30.733Z,77.65
2022-08-03T03:59:57.149Z,77.63
2022-08-03T04:02:23.851Z,77.82
2022-08-03T04:05:08.934Z,77.79
2022-08-03T04:08:28.692Z,78.13
2022-08-03T04:11:14.777Z,77.31
2022-08-03T04:13:47.374Z,78.17
2022-08-03T04:16:18.185Z,77.90
2022-08-03T04:18:54.558Z,78.04
2022-08-03T04:21:23.517Z,77.50
2022-08-03T04:23:52.986Z,77.57
2022-08-03T04:26:22.659Z,78.01
2022-08-03T04:28:51.338Z,77.74
2022-08-03T04:31:20.406Z,77.93
2022-08-03T04:33:47.401Z,78.02
2022-08-03T04:36:18.876Z,78.13
2022-08-03T04:38:59.339Z,78.15
2022-08-03T04:41:27.353Z,78.03
2022-08-03T04:43:56.100Z,78.11
2022-08-03T04:46:26.215Z,78.09
2022-08-03T04:48:53.140Z,77.91
2022-08-03T04:51:20.154Z,78.13
2022-08-03T04:53:46.676Z,78.42
2022-08-03T04:56:13.233Z,78.26
2022-08-03T04:58:40.233Z,78.19
2022-08-03T05:01:07.159Z,77.94
2022-08-03T05:03:33.664Z,78.00
2022-08-03T05:06:01.577Z,78.23
2022-08-03T05:08:36.018Z,77.73
2022-08-03T05:11:12.969Z,77.98
2022-08-03T05:13:39.352Z,77.66
2022-08-03T05:16:05.755Z,78.34
2022-08-03T05:18:32.259Z,78.18
2022-08-03T05:20:58.758Z,77.98
2022-08-03T05:23:25.161Z,77.64
2022-08-03T05:25:51.615Z,78.07
2022-08-03T05:28:18.064Z,77.95
2022-08-03T05:30:44.675Z,78.29
2022-08-03T05:33:11.303Z,78.05
2022-08-03T05:35:57.938Z,78.17
2022-08-03T05:38:33.117Z,78.59
2022-08-03T05:41:21.590Z,78.43
2022-08-03T05:43:49.060Z,77.80
2022-08-03T05:46:15.585Z,77.82
2022-08-03T05:48:42.594Z,77.39
2022-08-03T05:51:11.432Z,77.93
2022-08-03T05:53:39.715Z,77.01
2022-08-03T05:56:14.895Z,76.02
2022-08-03T05:58:48.434Z,74.97
2022-08-03T06:01:16.290Z,74.29
2022-08-03T06:03:42.905Z,73.94
2022-08-03T06:06:09.600Z,73.09
2022-08-03T06:08:36.078Z,74.37
2022-08-03T06:11:03.265Z,74.97
2022-08-03T06:13:29.749Z,75.20
2022-08-03T06:15:56.276Z,74.27
2022-08-03T06:18:24.470Z,74.89
2022-08-03T06:20:52.207Z,75.24
2022-08-03T06:23:19.404Z,74.71
2022-08-03T06:25:47.363Z,74.31
2022-08-03T06:28:42.413Z,74.70
2022-08-03T06:31:01.149Z,74.63
2022-08-03T06:34:30.757Z,75.00
2022-08-03T06:36:14.415Z,74.85
2022-08-03T06:38:40.979Z,74.82
2022-08-03T06:41:07.519Z,75.43
2022-08-03T06:43:37.405Z,75.62
2022-08-03T06:46:05.376Z,75.07
2022-08-03T06:48:32.376Z,75.20
2022-08-03T06:50:59.289Z,74.73
2022-08-03T06:53:26.136Z,74.24
2022-08-03T06:55:54.846Z,74.96
2022-08-03T06:58:22.312Z,74.88
2022-08-03T07:00:48.821Z,74.66
2022-08-03T07:03:15.612Z,75.06
2022-08-03T07:05:43.893Z,74.07
2022-08-03T07:08:10.533Z,74.42
2022-08-03T07:10:37.252Z,74.14
2022-08-03T07:13:04.561Z,74.04
2022-08-03T07:15:38.279Z,73.24
2022-08-03T07:18:17.616Z,73.28
2022-08-03T07:20:55.612Z,72.90
2022-08-03T07:23:22.005Z,73.09
2022-08-03T07:25:48.434Z,72.50
2022-08-03T07:28:14.952Z,73.49
2022-08-03T07:30:41.384Z,73.06
2022-08-03T07:33:07.863Z,73.12
2022-08-03T07:35:34.347Z,71.93
2022-08-03T07:38:00.825Z,72.01
2022-08-03T07:40:30.726Z,71.58
2022-08-03T07:42:59.003Z,72.50
2022-08-03T07:45:26.538Z,71.59
2022-08-03T07:47:54.320Z,70.33
2022-08-03T07:50:22.174Z,70.33
2022-08-03T07:52:53.076Z,70.11
2022-08-03T07:55:22.558Z,70.75
2022-08-03T07:58:06.477Z,69.56
2022-08-03T08:00:36.841Z,69.54
2022-08-03T08:03:04.899Z,69.47
2022-08-03T08:05:31.740Z,68.20
2022-08-03T08:07:58.648Z,68.83
2022-08-03T08:10:25.500Z,68.68
2022-08-03T08:12:52.412Z,68.39
2022-08-03T08:15:18.901Z,68.35
2022-08-03T08:17:50.159Z,67.89
2022-08-03T08:20:25.228Z,67.35
2022-08-03T08:23:01.553Z,66.69
2022-08-03T08:25:30.195Z,67.06
2022-08-03T08:28:29.831Z,66.23
2022-08-03T08:30:43.678Z,65.85
2022-08-03T08:33:15.698Z,65.43
2022-08-03T08:35:50.483Z,64.91
2022-08-03T08:38:16.894Z,64.41
2022-08-03T08:40:43.427Z,63.40
2022-08-03T08:43:09.881Z,63.84
2022-08-03T08:45:37.533Z,63.69
2022-08-03T08:48:08.117Z,64.04
2022-08-03T08:50:37.289Z,63.37
2022-08-03T08:53:07.157Z,63.80
2022-08-03T08:55:59.131Z,63.27
2022-08-03T08:58:24.586Z,62.80
2022-08-03T09:00:51.578Z,61.92
2022-08-03T09:03:22.573Z,61.93
2022-08-03T09:05:56.610Z,62.10
2022-08-03T09:08:23.626Z,62.06
2022-08-03T09:10:50.337Z,61.82
2022-08-03T09:13:17.039Z,61.87
2022-08-03T09:16:00.646Z,61.45
2022-08-03T09:18:32.669Z,61.57
2022-08-03T09:21:32.255Z,62.29
2022-08-03T09:24:05.710Z,61.77
2022-08-03T09:26:36.056Z,61.68
2022-08-03T09:29:13.778Z,60.63
2022-08-03T09:31:44.330Z,60.21
2022-08-03T09:34:15.965Z,60.71
2022-08-03T09:36:50.754Z,60.30
2022-08-03T09:39:19.380Z,59.82
2022-08-03T09:41:49.326Z,58.94
2022-08-03T09:44:24.211Z,59.53
2022-08-03T09:46:55.625Z,59.53
2022-08-03T09:49:22.912Z,59.48
2022-08-03T09:52:32.529Z,59.20
2022-08-03T09:54:36.328Z,58.77
2022-08-03T09:57:03.070Z,58.45
2022-08-03T09:59:32.036Z,58.59
2022-08-03T10:02:00.487Z,57.35
2022-08-03T10:04:27.625Z,57.37
2022-08-03T10:07:09.553Z,58.02
2022-08-03T10:09:37.046Z,56.42
2022-08-03T10:12:13.768Z,56.60
2022-08-03T10:14:42.118Z,56.25
2022-08-03T10:17:09.727Z,56.37
2022-08-03T10:19:36.588Z,56.97
2022-08-03T10:22:07.789Z,56.20
2022-08-03T10:24:36.398Z,54.92
2022-08-03T10:27:07.130Z,54.70
2022-08-03T10:29:47.186Z,55.23
2022-08-03T10:32:30.119Z,55.22
2022-08-03T10:35:20.932Z,53.56
2022-08-03T10:38:09.736Z,53.67
2022-08-03T10:40:48.597Z,54.86
2022-08-03T10:43:23.169Z,53.40
2022-08-03T10:45:51.071Z,52.60
2022-08-03T10:48:19.411Z,53.00
2022-08-03T10:50:48.448Z,53.04
2022-08-03T10:53:16.633Z,53.65
2022-08-03T10:56:05.892Z,52.35
2022-08-03T10:58:56.832Z,52.22
2022-08-03T11:02:00.288Z,51.55
2022-08-03T11:04:29.523Z,50.59
2022-08-03T11:07:23.514Z,51.30
2022-08-03T11:09:52.385Z,50.84
2022-08-03T11:12:32.959Z,51.70
2022-08-03T11:15:05.762Z,50.47
2022-08-03T11:17:33.902Z,50.87
2022-08-03T11:20:13.615Z,49.62
2022-08-03T11:22:54.538Z,50.42
2022-08-03T11:25:53.223Z,48.99
2022-08-03T11:28:25.975Z,48.66
2022-08-03T11:30:53.325Z,48.65
2022-08-03T11:33:30.574Z,48.76
2022-08-03T11:36:01.894Z,49.07
2022-08-03T11:38:28.372Z,48.62
2022-08-03T11:40:55.170Z,47.06
2022-08-03T11:43:31.626Z,45.81
2022-08-03T11:45:59.409Z,45.88
2022-08-03T11:48:28.380Z,46.50
2022-08-03T11:50:54.904Z,47.02
2022-08-03T11:53:21.427Z,46.21
2022-08-03T11:55:53.102Z,46.96
2022-08-03T11:59:15.301Z,46.09
2022-08-03T12:01:12.500Z,44.25
2022-08-03T12:03:39.026Z,43.32
2022-08-03T12:06:10.581Z,43.79
2022-08-03T12:08:37.153Z,44.70
2022-08-03T12:11:06.667Z,44.34
2022-08-03T12:14:26.992Z,45.04
2022-08-03T12:16:28.762Z,42.55
2022-08-03T12:18:57.341Z,43.67
2022-08-03T12:21:24.927Z,42.10
2022-08-03T12:23:57.270Z,41.47
2022-08-03T12:26:23.697Z,40.74
2022-08-03T12:28:50.380Z,38.67
2022-08-03T12:31:17.145Z,38.47
2022-08-03T12:34:03.161Z,38.67
2022-08-03T12:36:35.036Z,39.15
2022-08-03T12:39:04.241Z,38.65
2022-08-03T12:41:36.722Z,39.07
2022-08-03T12:44:05.309Z,39.34
2022-08-03T12:46:47.418Z,40.41
2022-08-03T12:49:17.303Z,41.01
2022-08-03T12:51:43.706Z,41.20
2022-08-03T12:54:16.845Z,41.74
2022-08-03T12:57:16.190Z,41.64
2022-08-03T12:59:53.306Z,42.25
2022-08-03T13:02:26.012Z,42.43
2022-08-03T13:04:54.225Z,42.83
2022-08-03T13:07:22.171Z,43.57
2022-08-03T13:09:49.754Z,44.00
2022-08-03T13:12:18.527Z,43.88
2022-08-03T13:14:48.081Z,43.32
2022-08-03T13:17:16.819Z,43.88
2022-08-03T13:19:43.863Z,43.84
2022-08-03T13:22:28.857Z,44.13
2022-08-03T13:24:57.468Z,44.18
2022-08-03T13:28:11.075Z,44.25
2022-08-03T13:30:21.058Z,44.32
2022-08-03T13:32:58.577Z,44.11
2022-08-03T13:35:25.353Z,44.00
2022-08-03T13:37:51.791Z,44.55
2022-08-03T13:40:18.322Z,44.23
2022-08-03T13:42:44.715Z,43.44
2022-08-03T13:45:11.463Z,43.87
2022-08-03T13:47:37.972Z,43.33
2022-08-03T13:50:04.927Z,43.01
2022-08-03T13:52:32.842Z,43.65
2022-08-03T13:55:00.070Z,43.17
2022-08-03T13:58:19.001Z,43.98
2022-08-03T14:00:26.686Z,44.40
2022-08-03T14:03:01.866Z,44.11
2022-08-03T14:05:32.258Z,44.21
2022-08-03T14:08:03.832Z,43.80
2022-08-03T14:10:32.159Z,42.91
2022-08-03T14:13:00.264Z,43.93
2022-08-03T14:15:28.455Z,43.35
2022-08-03T14:17:55.172Z,44.00
2022-08-03T14:20:36.882Z,42.98
2022-08-03T14:23:06.736Z,44.08
2022-08-03T14:25:49.851Z,44.78
2022-08-03T14:28:18.515Z,44.49
2022-08-03T14:30:45.127Z,45.06
2022-08-03T14:33:11.822Z,44.07
2022-08-03T14:35:38.251Z,43.37
2022-08-03T14:38:04.711Z,43.02
2022-08-03T14:40:34.061Z,43.15
2022-08-03T14:43:00.553Z,42.39
2022-08-03T14:45:26.996Z,42.14
2022-08-03T14:50:33.566Z,42.75
2022-08-03T14:50:47.005Z,42.10
2022-08-03T14:53:17.580Z,41.05
2022-08-03T14:55:50.020Z,41.68
2022-08-03T14:58:19.766Z,42.17
2022-08-03T15:00:49.214Z,42.81
2022-08-03T15:03:16.889Z,41.84
2022-08-03T15:05:43.773Z,41.56
2022-08-03T15:08:10.167Z,42.04
2022-08-03T15:10:43.757Z,40.97
2022-08-03T15:13:11.991Z,40.50
2022-08-03T15:15:38.524Z,42.02
2022-08-03T15:18:05.018Z,42.18
2022-08-03T15:20:43.344Z,41.28
2022-08-03T15:23:11.554Z,41.11
2022-08-03T15:26:03.597Z,41.55
2022-08-03T15:28:24.461Z,39.91
2022-08-03T15:30:54.335Z,40.70
2022-08-03T15:33:20.885Z,41.33
2022-08-03T15:35:47.761Z,40.39
2022-08-03T15:38:14.382Z,41.42
2022-08-03T15:40:41.262Z,42.61
2022-08-03T15:43:07.973Z,42.02
2022-08-03T15:45:36.647Z,42.58
2022-08-03T15:48:07.015Z,42.90
2022-08-03T15:50:33.664Z,42.67
2022-08-03T15:53:00.134Z,43.00
2022-08-03T15:55:27.229Z,44.34
2022-08-03T15:59:03.435Z,42.72
2022-08-03T16:00:41.649Z,43.13
2022-08-03T16:03:08.150Z,43.62
2022-08-03T16:05:35.186Z,43.45
2022-08-03T16:08:06.211Z,42.83
2022-08-03T16:10:33.559Z,41.05
2022-08-03T16:13:00.317Z,38.78
2022-08-03T16:15:27.155Z,37.91
2022-08-03T16:17:53.716Z,38.20
2022-08-03T16:20:30.931Z,39.63
2022-08-03T16:23:00.579Z,40.47
2022-08-03T16:25:28.209Z,41.61
2022-08-03T16:28:00.450Z,42.76
2022-08-03T16:30:34.052Z,42.85
2022-08-03T16:33:00.584Z,42.26
2022-08-03T16:35:27.010Z,42.44
2022-08-03T16:37:56.870Z,42.96
2022-08-03T16:40:24.960Z,43.24
2022-08-03T16:42:51.651Z,43.22
2022-08-03T16:45:18.285Z,42.55
2022-08-03T16:47:44.774Z,43.65
2022-08-03T16:50:18.988Z,44.26
2022-08-03T16:52:48.352Z,44.17
2022-08-03T16:55:18.441Z,44.03
2022-08-03T16:58:03.345Z,44.35
2022-08-03T17:00:33.182Z,43.52
2022-08-03T17:03:04.386Z,44.26
2022-08-03T17:05:32.660Z,44.45
2022-08-03T17:08:15.802Z,45.08
2022-08-03T17:10:45.126Z,45.40
2022-08-03T17:13:21.798Z,45.15
2022-08-03T17:15:58.013Z,45.35
2022-08-03T17:18:34.031Z,44.57
2022-08-03T17:21:05.037Z,44.40
2022-08-03T17:23:44.327Z,44.48
2022-08-03T17:26:21.242Z,44.96
2022-08-03T17:28:57.353Z,45.03
2022-08-03T17:31:31.312Z,45.79
2022-08-03T17:34:04.271Z,45.58
2022-08-03T17:37:02.647Z,46.30
2022-08-03T17:39:30.879Z,46.00
2022-08-03T17:42:00.739Z,46.98
2022-08-03T17:44:35.082Z,45.87
2022-08-03T17:47:08.135Z,46.40
2022-08-03T17:49:40.044Z,46.05
2022-08-03T17:52:34.882Z,46.68
2022-08-03T17:55:57.602Z,46.35
2022-08-03T17:58:15.989Z,45.86
2022-08-03T18:01:04.753Z,46.08
2022-08-03T18:03:58.326Z,46.17
2022-08-03T18:06:30.601Z,46.55
2022-08-03T18:09:04.686Z,46.85
2022-08-03T18:11:35.638Z,45.92
2022-08-03T18:14:17.214Z,46.53
2022-08-03T18:16:49.084Z,45.50
2022-08-03T18:19:16.896Z,46.31
2022-08-03T18:22:02.749Z,46.38
2022-08-03T18:24:30.809Z,46.28
2022-08-03T18:27:03.142Z,46.41
2022-08-03T18:29:30.575Z,46.85
2022-08-03T18:32:06.807Z,46.07
2022-08-03T18:34:41.104Z,46.69
2022-08-03T18:37:26.008Z,46.63
2022-08-03T18:39:57.973Z,46.44
2022-08-03T18:42:26.233Z,46.40
2022-08-03T18:44:56.128Z,46.99
2022-08-03T18:47:52.069Z,46.82
2022-08-03T18:50:22.503Z,47.46
2022-08-03T18:52:59.377Z,48.14
2022-08-03T18:55:35.809Z,48.06
2022-08-03T18:58:05.106Z,48.22
2022-08-03T19:03:24.163Z,48.13
2022-08-03T19:06:09.457Z,48.11
2022-08-03T19:08:49.351Z,48.41
2022-08-03T19:11:28.293Z,48.80
2022-08-03T19:13:59.220Z,48.43
2022-08-03T19:16:38.797Z,48.84
2022-08-03T19:19:10.578Z,49.09
2022-08-03T19:21:41.280Z,49.46
2022-08-03T19:24:13.582Z,48.99
2022-08-03T19:26:41.319Z,49.29
2022-08-03T19:31:59.781Z,49.59
2022-08-03T19:34:29.241Z,49.23
2022-08-03T19:36:58.295Z,49.21
2022-08-03T19:39:25.648Z,49.24
2022-08-03T19:42:08.142Z,49.28
2022-08-03T19:44:38.604Z,49.41
2022-08-03T19:47:11.222Z,49.56
2022-08-03T19:50:06.001Z,50.23
2022-08-03T19:52:39.497Z,50.69
2022-08-03T19:55:12.133Z,52.22
2022-08-03T19:57:42.292Z,52.10
2022-08-03T20:00:12.284Z,52.38
2022-08-03T20:02:41.323Z,52.51
2022-08-03T20:05:14.863Z,52.52
2022-08-03T20:07:47.456Z,52.09
2022-08-03T20:10:15.864Z,52.14
2022-08-03T20:12:44.549Z,52.89
2022-08-03T20:15:22.227Z,52.54
2022-08-03T20:17:56.390Z,52.64
2022-08-03T20:20:32.609Z,52.59
2022-08-03T20:23:03.695Z,53.54
2022-08-03T20:25:48.647Z,53.73
2022-08-03T20:28:50.551Z,53.21
2022-08-03T20:31:20.103Z,53.21
2022-08-03T20:33:49.250Z,54.14
2022-08-03T20:36:17.792Z,54.21
2022-08-03T20:38:48.324Z,53.91
2022-08-03T20:41:17.860Z,54.22
2022-08-03T20:43:44.828Z,54.48
2022-08-03T20:46:29.621Z,54.75
2022-08-03T20:48:59.638Z,54.95
2022-08-03T20:51:50.626Z,55.16
2022-08-03T20:54:29.820Z,54.71
2022-08-03T20:57:03.633Z,54.79
2022-08-03T20:59:46.984Z,54.77
2022-08-03T21:02:19.220Z,54.95
2022-08-03T21:04:47.421Z,54.98
2022-08-03T21:07:24.194Z,55.11
2022-08-03T21:09:55.488Z,55.36
2022-08-03T21:12:48.144Z,55.25
2022-08-03T21:13:02.204Z,49.62
2022-08-03T21:13:09.235Z,48.07
2022-08-03T21:16:02.402Z,55.55
2022-08-03T21:18:11.011Z,56.20
2022-08-03T21:20:38.951Z,56.43
2022-08-03T21:23:08.854Z,56.69
2022-08-03T21:25:36.207Z,56.54
2022-08-03T21:28:07.569Z,57.03
2022-08-03T21:30:35.006Z,57.07
2022-08-03T21:33:01.759Z,57.51
2022-08-03T21:35:28.511Z,57.49
2022-08-03T21:38:13.660Z,57.39
2022-08-03T21:40:41.028Z,57.64
2022-08-03T21:43:07.966Z,57.74
2022-08-03T21:45:48.299Z,57.60
2022-08-03T21:48:16.588Z,58.23
2022-08-03T21:50:43.983Z,58.45
2022-08-03T21:53:11.278Z,58.26
2022-08-03T21:55:40.076Z,58.52
2022-08-03T21:58:06.853Z,57.98
2022-08-03T22:00:34.850Z,58.28
2022-08-03T22:03:15.286Z,58.28
2022-08-03T22:05:44.767Z,59.00
2022-08-03T22:08:13.570Z,58.97
2022-08-03T22:10:43.053Z,58.51
2022-08-03T22:13:09.585Z,59.32
2022-08-03T22:15:36.096Z,59.36
2022-08-03T22:18:03.724Z,59.63
2022-08-03T22:20:30.320Z,60.19
2022-08-03T22:23:01.674Z,60.35
2022-08-03T22:25:31.393Z,60.00
2022-08-03T22:28:01.428Z,59.96
2022-08-03T22:30:29.253Z,60.27
2022-08-03T22:32:56.301Z,59.52
2022-08-03T22:35:24.957Z,59.73
2022-08-03T22:37:54.143Z,60.05
2022-08-03T22:40:21.251Z,59.92
2022-08-03T22:42:52.498Z,60.39
2022-08-03T22:46:07.771Z,60.58
2022-08-03T22:48:08.114Z,60.02
2022-08-03T22:50:34.966Z,59.99
2022-08-03T22:53:01.629Z,59.70
2022-08-03T22:55:28.862Z,59.95
2022-08-03T22:57:56.143Z,60.41
2022-08-03T23:00:23.875Z,60.57
2022-08-03T23:02:51.755Z,60.52
2022-08-03T23:06:01.900Z,60.28
2022-08-03T23:08:14.635Z,60.84
2022-08-03T23:10:46.743Z,61.31
2022-08-03T23:13:16.565Z,61.13
2022-08-03T23:15:55.668Z,60.86
2022-08-03T23:18:23.515Z,61.72
2022-08-03T23:20:52.748Z,62.15
2022-08-03T23:23:20.541Z,62.04
2022-08-03T23:25:49.612Z,62.52
2022-08-03T23:28:16.582Z,62.03
2022-08-03T23:30:44.662Z,61.26
2022-08-03T23:33:16.489Z,61.95
2022-08-03T23:36:28.113Z,61.81
2022-08-03T23:38:48.907Z,62.22
2022-08-03T23:41:18.690Z,62.19
2022-08-03T23:43:53.523Z,62.70
2022-08-03T23:46:25.763Z,62.73
2022-08-03T23:48:53.835Z,62.03
2022-08-03T23:51:34.866Z,63.10
2022-08-03T23:54:20.123Z,62.89
2022-08-03T23:57:05.007Z,62.60
2022-08-03T23:59:50.455Z,62.84
